createdAt,value
2019-05-23T00:00:43.355Z,997.86
2019-05-23T00:01:43.376Z,997.84
2019-05-23T00:02:43.459Z,997.90
2019-05-23T00:03:43.426Z,997.90
2019-05-23T00:04:43.455Z,997.89
2019-05-23T00:05:43.486Z,997.91
2019-05-23T00:06:43.509Z,997.92
2019-05-23T00:07:43.562Z,997.95
2019-05-23T00:08:43.563Z,997.96
2019-05-23T00:09:43.588Z,997.98
2019-05-23T00:10:43.616Z,997.96
2019-05-23T00:11:43.643Z,997.91
2019-05-23T00:12:43.670Z,997.90
2019-05-23T00:13:43.704Z,997.87
2019-05-23T00:14:43.723Z,997.91
2019-05-23T00:15:43.751Z,997.90
2019-05-23T00:16:43.779Z,997.89
2019-05-23T00:17:43.805Z,997.90
2019-05-23T00:18:43.829Z,997.91
2019-05-23T00:19:43.858Z,997.92
2019-05-23T00:20:43.884Z,997.92
2019-05-23T00:21:43.911Z,997.92
2019-05-23T00:22:43.937Z,997.92
2019-05-23T00:23:43.966Z,997.92
2019-05-23T00:24:43.990Z,997.94
2019-05-23T00:25:44.023Z,997.91
2019-05-23T00:26:44.045Z,997.91
2019-05-23T00:27:44.072Z,997.92
2019-05-23T00:28:44.099Z,997.97
2019-05-23T00:29:44.126Z,997.95
2019-05-23T00:30:44.152Z,997.97
2019-05-23T00:31:44.177Z,997.98
2019-05-23T00:32:44.266Z,998.00
2019-05-23T00:33:44.233Z,997.98
2019-05-23T00:34:44.261Z,997.95
2019-05-23T00:35:44.286Z,997.97
2019-05-23T00:36:44.314Z,997.99
2019-05-23T00:37:44.347Z,997.99
2019-05-23T00:38:44.365Z,997.98
2019-05-23T00:39:44.391Z,997.97
2019-05-23T00:40:44.421Z,998.00
2019-05-23T00:41:44.448Z,997.96
2019-05-23T00:42:44.474Z,997.97
2019-05-23T00:43:44.503Z,997.98
2019-05-23T00:44:44.528Z,998.01
2019-05-23T00:45:44.555Z,997.98
2019-05-23T00:46:44.581Z,997.99
2019-05-23T00:47:44.608Z,997.94
2019-05-23T00:48:44.674Z,997.95
2019-05-23T00:49:44.705Z,997.98
2019-05-23T00:50:44.704Z,997.98
2019-05-23T00:51:44.713Z,997.97
2019-05-23T00:52:44.748Z,998.01
2019-05-23T00:53:44.768Z,998.02
2019-05-23T00:54:44.798Z,998.04
2019-05-23T00:55:44.825Z,998.04
2019-05-23T00:56:44.847Z,998.04
2019-05-23T00:57:44.876Z,998.06
2019-05-23T00:58:44.901Z,998.09
2019-05-23T00:59:44.928Z,998.11
2019-05-23T01:00:44.955Z,998.07
2019-05-23T01:01:44.982Z,998.10
2019-05-23T01:02:45.010Z,998.04
2019-05-23T01:03:45.036Z,998.05
2019-05-23T01:04:45.062Z,998.04
2019-05-23T01:05:45.093Z,998.02
2019-05-23T01:06:45.124Z,998.01
2019-05-23T01:07:45.208Z,998.04
2019-05-23T01:08:45.207Z,998.06
2019-05-23T01:09:45.198Z,998.05
2019-05-23T01:10:45.226Z,998.05
2019-05-23T01:11:45.253Z,998.07
2019-05-23T01:12:45.278Z,998.05
2019-05-23T01:13:45.303Z,998.05
2019-05-23T01:14:45.333Z,998.06
2019-05-23T01:15:45.358Z,998.05
2019-05-23T01:16:45.433Z,998.07
2019-05-23T01:17:45.411Z,998.06
2019-05-23T01:18:45.437Z,998.05
2019-05-23T01:19:45.469Z,998.05
2019-05-23T01:20:45.505Z,998.10
2019-05-23T01:21:45.554Z,998.10
2019-05-23T01:22:45.544Z,998.11
2019-05-23T01:23:45.570Z,998.10
2019-05-23T01:24:45.598Z,998.12
2019-05-23T01:25:45.625Z,998.13
2019-05-23T01:26:45.709Z,998.14
2019-05-23T01:27:45.689Z,998.13
2019-05-23T01:28:45.706Z,998.15
2019-05-23T01:29:49.760Z,998.17
2019-05-23T01:30:45.759Z,998.20
2019-05-23T01:31:45.816Z,998.21
2019-05-23T01:32:45.812Z,998.22
2019-05-23T01:33:45.838Z,998.20
2019-05-23T01:34:46.000Z,998.18
2019-05-23T01:35:45.892Z,998.15
2019-05-23T01:36:45.965Z,998.19
2019-05-23T01:37:45.946Z,998.17
2019-05-23T01:38:45.976Z,998.21
2019-05-23T01:39:45.998Z,998.22
2019-05-23T01:40:46.024Z,998.20
2019-05-23T01:41:46.055Z,998.24
2019-05-23T01:42:46.080Z,998.23
2019-05-23T01:43:46.105Z,998.30
2019-05-23T01:44:46.134Z,998.26
2019-05-23T01:45:46.207Z,998.26
2019-05-23T01:46:46.185Z,998.27
2019-05-23T01:47:46.214Z,998.26
2019-05-23T01:48:46.240Z,998.27
2019-05-23T01:49:46.267Z,998.31
2019-05-23T01:50:46.293Z,998.34
2019-05-23T01:51:46.322Z,998.31
2019-05-23T01:52:46.347Z,998.36
2019-05-23T01:53:46.372Z,998.36
2019-05-23T01:54:46.399Z,998.34
2019-05-23T01:55:46.425Z,998.37
2019-05-23T01:56:46.461Z,998.36
2019-05-23T01:57:46.478Z,998.35
2019-05-23T01:58:46.505Z,998.35
2019-05-23T01:59:46.533Z,998.35
2019-05-23T02:00:46.560Z,998.39
2019-05-23T02:01:46.588Z,998.39
2019-05-23T02:02:46.616Z,998.42
2019-05-23T02:03:46.639Z,998.38
2019-05-23T02:04:46.716Z,998.44
2019-05-23T02:05:46.695Z,998.42
2019-05-23T02:06:46.724Z,998.45
2019-05-23T02:07:46.746Z,998.44
2019-05-23T02:08:46.777Z,998.43
2019-05-23T02:09:46.802Z,998.50
2019-05-23T02:10:46.830Z,998.44
2019-05-23T02:11:46.853Z,998.51
2019-05-23T02:12:46.882Z,998.50
2019-05-23T02:13:46.908Z,998.52
2019-05-23T02:14:46.958Z,998.49
2019-05-23T02:15:46.964Z,998.51
2019-05-23T02:16:46.987Z,998.54
2019-05-23T02:17:47.014Z,998.56
2019-05-23T02:18:47.040Z,998.54
2019-05-23T02:19:47.067Z,998.48
2019-05-23T02:20:47.095Z,998.49
2019-05-23T02:21:47.121Z,998.50
2019-05-23T02:22:47.146Z,998.51
2019-05-23T02:23:47.204Z,998.54
2019-05-23T02:24:47.201Z,998.51
2019-05-23T02:25:47.226Z,998.52
2019-05-23T02:26:47.259Z,998.48
2019-05-23T02:27:47.280Z,998.49
2019-05-23T02:28:47.328Z,998.44
2019-05-23T02:29:47.343Z,998.45
2019-05-23T02:30:47.368Z,998.48
2019-05-23T02:31:47.389Z,998.46
2019-05-23T02:32:47.418Z,998.46
2019-05-23T02:33:47.441Z,998.49
2019-05-23T02:34:47.467Z,998.50
2019-05-23T02:35:47.566Z,998.50
2019-05-23T02:36:47.521Z,998.50
2019-05-23T02:37:47.547Z,998.51
2019-05-23T02:38:47.578Z,998.53
2019-05-23T02:39:47.602Z,998.50
2019-05-23T02:40:47.628Z,998.55
2019-05-23T02:41:47.654Z,998.54
2019-05-23T02:42:47.745Z,998.59
2019-05-23T02:43:47.713Z,998.58
2019-05-23T02:44:47.734Z,998.61
2019-05-23T02:45:47.762Z,998.61
2019-05-23T02:46:47.787Z,998.60
2019-05-23T02:47:47.819Z,998.64
2019-05-23T02:48:47.923Z,998.64
2019-05-23T02:49:47.870Z,998.63
2019-05-23T02:50:47.934Z,998.65
2019-05-23T02:51:47.970Z,998.62
2019-05-23T02:52:47.948Z,998.63
2019-05-23T02:53:48.006Z,998.65
2019-05-23T02:54:48.000Z,998.64
2019-05-23T02:55:48.038Z,998.65
2019-05-23T02:56:48.054Z,998.68
2019-05-23T02:57:48.142Z,998.70
2019-05-23T02:58:48.120Z,998.72
2019-05-23T02:59:48.139Z,998.72
2019-05-23T03:00:54.127Z,998.72
2019-05-23T03:01:48.190Z,998.74
2019-05-23T03:02:48.214Z,998.79
2019-05-23T03:03:48.241Z,998.75
2019-05-23T03:04:48.267Z,998.82
2019-05-23T03:05:48.294Z,998.80
2019-05-23T03:06:48.383Z,998.85
2019-05-23T03:07:48.354Z,998.86
2019-05-23T03:08:48.406Z,998.85
2019-05-23T03:09:48.400Z,998.88
2019-05-23T03:10:48.427Z,998.87
2019-05-23T03:11:48.454Z,998.94
2019-05-23T03:12:48.487Z,998.94
2019-05-23T03:13:48.510Z,998.99
2019-05-23T03:14:48.533Z,999.05
2019-05-23T03:15:48.562Z,999.06
2019-05-23T03:16:48.586Z,999.02
2019-05-23T03:17:48.615Z,999.06
2019-05-23T03:18:48.643Z,999.09
2019-05-23T03:19:48.668Z,999.12
2019-05-23T03:20:48.695Z,999.12
2019-05-23T03:21:48.728Z,999.15
2019-05-23T03:22:48.750Z,999.18
2019-05-23T03:23:48.776Z,999.20
2019-05-23T03:24:48.804Z,999.25
2019-05-23T03:25:48.829Z,999.22
2019-05-23T03:26:48.855Z,999.26
2019-05-23T03:27:48.882Z,999.28
2019-05-23T03:28:48.907Z,999.22
2019-05-23T03:29:48.994Z,999.25
2019-05-23T03:30:48.962Z,999.24
2019-05-23T03:31:49.017Z,999.27
2019-05-23T03:32:49.022Z,999.30
2019-05-23T03:33:49.044Z,999.36
2019-05-23T03:34:49.068Z,999.41
2019-05-23T03:35:49.095Z,999.39
2019-05-23T03:36:49.122Z,999.43
2019-05-23T03:37:49.229Z,999.45
2019-05-23T03:38:49.211Z,999.46
2019-05-23T03:39:49.206Z,999.47
2019-05-23T03:40:49.229Z,999.48
2019-05-23T03:41:49.258Z,999.50
2019-05-23T03:42:49.281Z,999.49
2019-05-23T03:43:49.308Z,999.49
2019-05-23T03:44:49.335Z,999.49
2019-05-23T03:45:49.418Z,999.46
2019-05-23T03:46:49.405Z,999.46
2019-05-23T03:47:49.415Z,999.47
2019-05-23T03:48:49.441Z,999.45
2019-05-23T03:49:49.470Z,999.41
2019-05-23T03:50:49.494Z,999.51
2019-05-23T03:51:49.522Z,999.49
2019-05-23T03:52:49.553Z,999.47
2019-05-23T03:53:49.633Z,999.40
2019-05-23T03:54:49.600Z,999.39
2019-05-23T03:55:49.627Z,999.39
2019-05-23T03:56:49.701Z,999.39
2019-05-23T03:57:49.688Z,999.43
2019-05-23T03:58:49.707Z,999.41
2019-05-23T03:59:49.736Z,999.40
2019-05-23T04:00:49.775Z,999.44
2019-05-23T04:01:49.793Z,999.43
2019-05-23T04:02:49.817Z,999.44
2019-05-23T04:03:49.840Z,999.46
2019-05-23T04:04:49.871Z,999.45
2019-05-23T04:05:49.941Z,999.46
2019-05-23T04:06:49.922Z,999.49
2019-05-23T04:07:50.023Z,999.50
2019-05-23T04:08:49.975Z,999.52
2019-05-23T04:09:50.006Z,999.57
2019-05-23T04:10:52.081Z,999.57
2019-05-23T04:11:50.057Z,999.59
2019-05-23T04:12:50.083Z,999.62
2019-05-23T04:13:50.108Z,999.58
2019-05-23T04:14:50.135Z,999.55
2019-05-23T04:15:50.166Z,999.56
2019-05-23T04:16:50.190Z,999.55
2019-05-23T04:17:50.214Z,999.58
2019-05-23T04:18:50.245Z,999.58
2019-05-23T04:19:50.268Z,999.62
2019-05-23T04:20:50.294Z,999.63
2019-05-23T04:21:50.323Z,999.62
2019-05-23T04:22:50.369Z,999.62
2019-05-23T04:23:50.375Z,999.59
2019-05-23T04:24:50.403Z,999.63
2019-05-23T04:25:50.427Z,999.62
2019-05-23T04:26:50.452Z,999.58
2019-05-23T04:27:50.521Z,999.56
2019-05-23T04:28:50.508Z,999.58
2019-05-23T04:29:50.532Z,999.59
2019-05-23T04:30:50.565Z,999.58
2019-05-23T04:32:06.341Z,999.58
2019-05-23T04:32:50.648Z,999.55
2019-05-23T04:33:50.645Z,999.53
2019-05-23T04:34:50.671Z,999.51
2019-05-23T04:35:50.695Z,999.47
2019-05-23T04:36:50.719Z,999.41
2019-05-23T04:37:50.746Z,999.42
2019-05-23T04:38:50.774Z,999.46
2019-05-23T04:39:50.805Z,999.44
2019-05-23T04:40:50.836Z,999.44
2019-05-23T04:41:50.854Z,999.45
2019-05-23T04:42:50.880Z,999.49
2019-05-23T04:43:50.912Z,999.52
2019-05-23T04:44:50.933Z,999.56
2019-05-23T04:45:50.962Z,999.59
2019-05-23T04:46:50.987Z,999.60
2019-05-23T04:47:51.015Z,999.68
2019-05-23T04:48:51.040Z,999.67
2019-05-23T04:49:51.079Z,999.70
2019-05-23T04:50:51.098Z,999.69
2019-05-23T04:51:51.119Z,999.71
2019-05-23T04:52:51.144Z,999.74
2019-05-23T04:53:51.173Z,999.68
2019-05-23T04:54:51.205Z,999.70
2019-05-23T04:55:51.261Z,999.65
2019-05-23T04:56:51.260Z,999.63
2019-05-23T04:57:51.279Z,999.62
2019-05-23T04:58:51.307Z,999.57
2019-05-23T04:59:51.336Z,999.60
2019-05-23T05:00:51.361Z,999.62
2019-05-23T05:01:51.384Z,999.63
2019-05-23T05:02:51.410Z,999.63
2019-05-23T05:03:51.442Z,999.69
2019-05-23T05:04:51.529Z,999.67
2019-05-23T05:05:51.491Z,999.72
2019-05-23T05:06:51.518Z,999.74
2019-05-23T05:07:51.554Z,999.76
2019-05-23T05:08:51.572Z,999.71
2019-05-23T05:09:51.607Z,999.76
2019-05-23T05:10:51.657Z,999.72
2019-05-23T05:11:51.658Z,999.77
2019-05-23T05:12:51.678Z,999.76
2019-05-23T05:13:51.703Z,999.81
2019-05-23T05:14:51.729Z,999.77
2019-05-23T05:15:51.787Z,999.78
2019-05-23T05:16:51.826Z,999.74
2019-05-23T05:17:51.810Z,999.76
2019-05-23T05:18:55.051Z,999.78
2019-05-23T05:19:51.862Z,999.83
2019-05-23T05:20:51.889Z,999.86
2019-05-23T05:21:51.915Z,999.84
2019-05-23T05:22:51.948Z,999.85
2019-05-23T05:23:52.028Z,999.87
2019-05-23T05:24:52.062Z,999.91
2019-05-23T05:25:52.024Z,999.91
2019-05-23T05:26:52.047Z,999.91
2019-05-23T05:27:52.077Z,999.89
2019-05-23T05:28:52.138Z,999.90
2019-05-23T05:29:52.130Z,999.89
2019-05-23T05:30:52.154Z,999.90
2019-05-23T05:31:52.261Z,999.83
2019-05-23T05:32:52.211Z,999.88
2019-05-23T05:33:52.307Z,999.86
2019-05-23T05:34:52.269Z,999.87
2019-05-23T05:35:52.292Z,999.83
2019-05-23T05:36:52.317Z,999.85
2019-05-23T05:37:52.342Z,999.85
2019-05-23T05:38:52.436Z,999.86
2019-05-23T05:39:52.396Z,999.87
2019-05-23T05:40:52.439Z,999.88
2019-05-23T05:41:52.480Z,999.84
2019-05-23T05:42:52.477Z,999.85
2019-05-23T05:43:53.486Z,999.85
2019-05-23T05:44:52.542Z,999.89
2019-05-23T05:45:52.557Z,999.85
2019-05-23T05:46:52.589Z,999.86
2019-05-23T05:47:52.610Z,999.87
2019-05-23T05:48:52.643Z,999.87
2019-05-23T05:49:52.709Z,999.90
2019-05-23T05:50:52.691Z,999.89
2019-05-23T05:51:52.721Z,999.86
2019-05-23T05:52:52.764Z,999.89
2019-05-23T05:53:52.769Z,999.91
2019-05-23T05:54:52.803Z,999.93
2019-05-23T05:55:52.824Z,999.99
2019-05-23T05:56:52.858Z,1000.04
2019-05-23T05:57:52.883Z,1000.12
2019-05-23T05:58:53.440Z,1000.19
2019-05-23T05:59:52.942Z,1000.22
2019-05-23T06:00:52.961Z,1000.23
2019-05-23T06:01:52.988Z,1000.18
2019-05-23T06:03:03.521Z,1000.14
2019-05-23T06:03:53.097Z,1000.13
2019-05-23T06:04:53.064Z,1000.14
2019-05-23T06:05:53.147Z,1000.19
2019-05-23T06:06:53.116Z,1000.19
2019-05-23T06:07:53.144Z,1000.20
2019-05-23T06:08:53.174Z,1000.20
2019-05-23T06:09:53.228Z,1000.18
2019-05-23T06:10:53.224Z,1000.19
2019-05-23T06:11:53.250Z,1000.19
2019-05-23T06:12:53.279Z,1000.19
2019-05-23T06:13:53.324Z,1000.24
2019-05-23T06:14:53.345Z,1000.27
2019-05-23T06:15:53.400Z,1000.27
2019-05-23T06:16:53.386Z,1000.29
2019-05-23T06:17:53.413Z,1000.36
2019-05-23T06:18:53.487Z,1000.31
2019-05-23T06:19:53.472Z,1000.34
2019-05-23T06:20:53.491Z,1000.37
2019-05-23T06:21:53.520Z,1000.32
2019-05-23T06:22:53.568Z,1000.35
2019-05-23T06:23:53.571Z,1000.37
2019-05-23T06:24:56.098Z,1000.35
2019-05-23T06:25:53.629Z,1000.36
2019-05-23T06:26:53.675Z,1000.35
2019-05-23T06:27:53.680Z,1000.35
2019-05-23T06:28:53.773Z,1000.33
2019-05-23T06:29:53.735Z,1000.35
2019-05-23T06:30:53.758Z,1000.34
2019-05-23T06:31:53.804Z,1000.37
2019-05-23T06:32:53.817Z,1000.41
2019-05-23T06:33:53.844Z,1000.39
2019-05-23T06:34:53.871Z,1000.45
2019-05-23T06:35:53.894Z,1000.45
2019-05-23T06:36:54.041Z,1000.46
2019-05-23T06:37:53.968Z,1000.43
2019-05-23T06:38:53.983Z,1000.46
2019-05-23T06:39:54.073Z,1000.43
2019-05-23T06:40:54.029Z,1000.42
2019-05-23T06:41:54.055Z,1000.41
2019-05-23T06:42:54.106Z,1000.44
2019-05-23T06:43:54.116Z,1000.46
2019-05-23T06:44:54.137Z,1000.45
2019-05-23T06:45:54.214Z,1000.47
2019-05-23T06:46:54.191Z,1000.53
2019-05-23T06:47:54.277Z,1000.59
2019-05-23T06:48:54.247Z,1000.65
2019-05-23T06:49:54.274Z,1000.64
2019-05-23T06:50:54.300Z,1000.59
2019-05-23T06:51:54.325Z,1000.55
2019-05-23T06:52:54.385Z,1000.59
2019-05-23T06:53:54.383Z,1000.54
2019-05-23T06:54:54.404Z,1000.61
2019-05-23T06:55:54.435Z,1000.58
2019-05-23T06:56:54.467Z,1000.58
2019-05-23T06:57:54.520Z,1000.59
2019-05-23T06:58:54.514Z,1000.61
2019-05-23T06:59:54.541Z,1000.64
2019-05-23T07:00:54.595Z,1000.70
2019-05-23T07:01:54.595Z,1000.72
2019-05-23T07:02:54.644Z,1000.67
2019-05-23T07:03:54.676Z,1000.65
2019-05-23T07:04:54.676Z,1000.61
2019-05-23T07:05:54.703Z,1000.59
2019-05-23T07:06:54.739Z,1000.65
2019-05-23T07:07:54.764Z,1000.67
2019-05-23T07:08:54.782Z,1000.64
2019-05-23T07:09:54.810Z,1000.64
2019-05-23T07:10:54.836Z,1000.64
2019-05-23T07:11:54.871Z,1000.68
2019-05-23T07:12:54.891Z,1000.72
2019-05-23T07:13:54.924Z,1000.69
2019-05-23T07:14:54.959Z,1000.68
2019-05-23T07:15:55.026Z,1000.72
2019-05-23T07:16:55.005Z,1000.70
2019-05-23T07:17:55.028Z,1000.74
2019-05-23T07:18:55.052Z,1000.76
2019-05-23T07:19:55.080Z,1000.74
2019-05-23T07:20:55.114Z,1000.66
2019-05-23T07:21:55.204Z,1000.63
2019-05-23T07:22:55.162Z,1000.63
2019-05-23T07:23:55.188Z,1000.68
2019-05-23T07:24:58.554Z,1000.65
2019-05-23T07:25:55.251Z,1000.62
2019-05-23T07:26:55.268Z,1000.64
2019-05-23T07:27:55.298Z,1000.64
2019-05-23T07:28:55.328Z,1000.64
2019-05-23T07:29:55.352Z,1000.64
2019-05-23T07:30:55.374Z,1000.65
2019-05-23T07:31:55.409Z,1000.66
2019-05-23T07:32:55.438Z,1000.63
2019-05-23T07:34:01.854Z,1000.76
2019-05-23T07:34:55.490Z,1000.73
2019-05-23T07:35:55.579Z,1000.76
2019-05-23T07:36:55.538Z,1000.78
2019-05-23T07:37:55.625Z,1000.79
2019-05-23T07:38:55.591Z,1000.79
2019-05-23T07:39:55.621Z,1000.84
2019-05-23T07:40:55.647Z,1000.84
2019-05-23T07:41:55.675Z,1000.87
2019-05-23T07:42:55.769Z,1000.85
2019-05-23T07:43:55.727Z,1000.86
2019-05-23T07:44:55.752Z,1000.84
2019-05-23T07:45:56.565Z,1000.84
2019-05-23T07:46:55.810Z,1000.83
2019-05-23T07:47:55.834Z,1000.82
2019-05-23T07:48:55.959Z,1000.81
2019-05-23T07:49:55.892Z,1000.84
2019-05-23T07:50:55.916Z,1000.87
2019-05-23T07:51:55.952Z,1000.88
2019-05-23T07:52:55.973Z,1000.89
2019-05-23T07:53:56.024Z,1000.85
2019-05-23T07:54:56.107Z,1000.91
2019-05-23T07:55:56.060Z,1000.93
2019-05-23T07:56:56.081Z,1000.86
2019-05-23T07:57:56.101Z,1000.90
2019-05-23T07:58:56.142Z,1000.90
2019-05-23T07:59:56.159Z,1000.85
2019-05-23T08:00:56.189Z,1000.93
2019-05-23T08:01:56.210Z,1000.88
2019-05-23T08:02:56.253Z,1000.89
2019-05-23T08:03:56.263Z,1000.93
2019-05-23T08:04:56.292Z,1000.97
2019-05-23T08:05:56.347Z,1001.02
2019-05-23T08:06:56.342Z,1000.98
2019-05-23T08:07:56.520Z,1000.98
2019-05-23T08:08:56.407Z,1001.02
2019-05-23T08:09:56.424Z,1001.01
2019-05-23T08:10:56.515Z,1001.07
2019-05-23T08:11:56.477Z,1001.14
2019-05-23T08:12:56.503Z,1001.21
2019-05-23T08:13:56.534Z,1001.20
2019-05-23T08:14:56.560Z,1001.21
2019-05-23T08:15:56.594Z,1001.21
2019-05-23T08:16:56.612Z,1001.20
2019-05-23T08:17:56.638Z,1001.17
2019-05-23T08:18:56.671Z,1001.13
2019-05-23T08:19:56.691Z,1001.11
2019-05-23T08:20:56.719Z,1001.14
2019-05-23T08:21:56.751Z,1001.14
2019-05-23T08:22:56.775Z,1001.16
2019-05-23T08:23:56.803Z,1001.12
2019-05-23T08:24:56.829Z,1001.14
2019-05-23T08:25:56.855Z,1001.10
2019-05-23T08:26:56.881Z,1001.10
2019-05-23T08:27:56.907Z,1001.12
2019-05-23T08:29:23.717Z,1001.15
2019-05-23T08:29:56.965Z,1001.19
2019-05-23T08:30:56.990Z,1001.20
2019-05-23T08:31:57.022Z,1001.27
2019-05-23T08:32:57.043Z,1001.27
2019-05-23T08:33:57.068Z,1001.24
2019-05-23T08:34:57.103Z,1001.23
2019-05-23T08:35:57.121Z,1001.26
2019-05-23T08:36:57.150Z,1001.27
2019-05-23T08:37:57.177Z,1001.22
2019-05-23T08:38:57.222Z,1001.26
2019-05-23T08:39:57.228Z,1001.21
2019-05-23T08:40:57.264Z,1001.19
2019-05-23T08:41:57.345Z,1001.19
2019-05-23T08:42:57.311Z,1001.16
2019-05-23T08:43:57.405Z,1001.09
2019-05-23T08:44:57.366Z,1001.14
2019-05-23T08:45:57.468Z,1001.16
2019-05-23T08:46:57.423Z,1001.17
2019-05-23T08:47:57.448Z,1001.20
2019-05-23T08:48:57.471Z,1001.17
2019-05-23T08:49:57.509Z,1001.19
2019-05-23T08:50:57.578Z,1001.18
2019-05-23T08:51:57.552Z,1001.20
2019-05-23T08:52:57.640Z,1001.18
2019-05-23T08:53:57.607Z,1001.21
2019-05-23T08:54:57.636Z,1001.23
2019-05-23T08:55:57.661Z,1001.22
2019-05-23T08:56:57.687Z,1001.17
2019-05-23T08:57:57.714Z,1001.18
2019-05-23T08:58:57.740Z,1001.20
2019-05-23T08:59:57.771Z,1001.19
2019-05-23T09:00:57.795Z,1001.21
2019-05-23T09:01:57.821Z,1001.19
2019-05-23T09:02:59.066Z,1001.16
2019-05-23T09:03:57.880Z,1001.13
2019-05-23T09:05:05.443Z,1001.14
2019-05-23T09:05:57.930Z,1001.13
2019-05-23T09:06:57.987Z,1001.12
2019-05-23T09:07:57.988Z,1001.16
2019-05-23T09:08:58.010Z,1001.15
2019-05-23T09:09:58.042Z,1001.16
2019-05-23T09:10:58.064Z,1001.13
2019-05-23T09:11:58.090Z,1001.13
2019-05-23T09:12:58.130Z,1001.10
2019-05-23T09:13:58.146Z,1001.05
2019-05-23T09:14:59.128Z,1001.09
2019-05-23T09:15:58.202Z,1001.08
2019-05-23T09:16:58.226Z,1001.13
2019-05-23T09:17:58.259Z,1001.13
2019-05-23T09:18:58.281Z,1001.08
2019-05-23T09:19:58.342Z,1001.12
2019-05-23T09:20:58.333Z,1001.10
2019-05-23T09:21:58.429Z,1001.13
2019-05-23T09:22:58.391Z,1001.09
2019-05-23T09:23:58.417Z,1001.10
2019-05-23T09:24:58.443Z,1001.07
2019-05-23T09:25:58.470Z,1001.04
2019-05-23T09:26:58.499Z,1001.10
2019-05-23T09:27:58.527Z,1001.07
2019-05-23T09:28:58.599Z,1001.04
2019-05-23T09:29:58.577Z,1001.02
2019-05-23T09:30:58.683Z,1001.04
2019-05-23T09:31:58.630Z,1001.06
2019-05-23T09:32:58.739Z,1001.05
2019-05-23T09:33:58.692Z,1001.09
2019-05-23T09:34:58.711Z,1001.09
2019-05-23T09:35:58.755Z,1001.15
2019-05-23T09:37:00.442Z,1001.14
2019-05-23T09:37:58.795Z,1001.08
2019-05-23T09:38:58.822Z,1001.12
2019-05-23T09:39:58.852Z,1001.09
2019-05-23T09:40:58.875Z,1001.09
2019-05-23T09:41:58.907Z,1001.09
2019-05-23T09:42:58.934Z,1001.10
2019-05-23T09:43:58.955Z,1001.09
2019-05-23T09:44:58.985Z,1001.11
2019-05-23T09:45:59.009Z,1001.12
2019-05-23T09:46:59.075Z,1001.14
2019-05-23T09:47:59.080Z,1001.12
2019-05-23T09:48:59.091Z,1001.15
2019-05-23T09:49:59.167Z,1001.13
2019-05-23T09:50:59.144Z,1001.12
2019-05-23T09:52:01.383Z,1001.19
2019-05-23T09:52:59.202Z,1001.16
2019-05-23T09:53:59.239Z,1001.24
2019-05-23T09:54:59.265Z,1001.24
2019-05-23T09:55:59.283Z,1001.28
2019-05-23T09:56:59.307Z,1001.28
2019-05-23T09:57:59.338Z,1001.28
2019-05-23T09:58:59.361Z,1001.28
2019-05-23T09:59:59.387Z,1001.29
2019-05-23T10:00:59.417Z,1001.32
2019-05-23T10:01:59.462Z,1001.32
2019-05-23T10:02:59.471Z,1001.29
2019-05-23T10:03:59.507Z,1001.28
2019-05-23T10:04:59.524Z,1001.24
2019-05-23T10:05:59.555Z,1001.29
2019-05-23T10:06:59.579Z,1001.28
2019-05-23T10:07:59.611Z,1001.25
2019-05-23T10:08:59.635Z,1001.23
2019-05-23T10:09:59.671Z,1001.23
2019-05-23T10:10:59.947Z,1001.22
2019-05-23T10:11:59.720Z,1001.23
2019-05-23T10:12:59.745Z,1001.21
2019-05-23T10:13:59.769Z,1001.22
2019-05-23T10:14:59.796Z,1001.20
2019-05-23T10:15:59.824Z,1001.22
2019-05-23T10:16:59.912Z,1001.24
2019-05-23T10:18:00.898Z,1001.23
2019-05-23T10:18:59.908Z,1001.19
2019-05-23T10:19:59.932Z,1001.20
2019-05-23T10:20:59.957Z,1001.22
2019-05-23T10:21:59.987Z,1001.20
2019-05-23T10:23:00.653Z,1001.19
2019-05-23T10:24:00.056Z,1001.18
2019-05-23T10:25:00.093Z,1001.20
2019-05-23T10:26:00.110Z,1001.17
2019-05-23T10:27:00.119Z,1001.17
2019-05-23T10:28:00.149Z,1001.14
2019-05-23T10:29:00.242Z,1001.13
2019-05-23T10:30:00.206Z,1001.16
2019-05-23T10:31:00.230Z,1001.14
2019-05-23T10:32:00.256Z,1001.11
2019-05-23T10:33:00.290Z,1001.11
2019-05-23T10:34:00.323Z,1001.12
2019-05-23T10:35:00.363Z,1001.08
2019-05-23T10:36:01.374Z,1001.10
2019-05-23T10:37:00.395Z,1001.11
2019-05-23T10:38:00.436Z,1001.07
2019-05-23T10:39:00.515Z,1001.14
2019-05-23T10:40:00.474Z,1001.14
2019-05-23T10:41:00.541Z,1001.14
2019-05-23T10:42:00.596Z,1001.19
2019-05-23T10:43:00.556Z,1001.14
2019-05-23T10:44:00.585Z,1001.16
2019-05-23T10:45:00.612Z,1001.16
2019-05-23T10:46:00.637Z,1001.13
2019-05-23T10:47:00.668Z,1001.18
2019-05-23T10:48:00.694Z,1001.10
2019-05-23T10:49:00.726Z,1001.11
2019-05-23T10:50:06.848Z,1001.12
2019-05-23T10:51:00.773Z,1001.12
2019-05-23T10:52:00.801Z,1001.12
2019-05-23T10:53:00.901Z,1001.06
2019-05-23T10:54:00.859Z,1001.11
2019-05-23T10:55:00.880Z,1001.12
2019-05-23T10:56:00.999Z,1001.06
2019-05-23T10:57:00.939Z,1001.02
2019-05-23T10:58:00.964Z,1001.05
2019-05-23T10:59:00.992Z,1001.10
2019-05-23T11:00:01.017Z,1001.08
2019-05-23T11:01:01.048Z,1001.13
2019-05-23T11:02:01.074Z,1001.14
2019-05-23T11:03:01.109Z,1001.15
2019-05-23T11:04:01.205Z,1001.16
2019-05-23T11:05:12.233Z,1001.18
2019-05-23T11:06:14.971Z,1001.25
2019-05-23T11:07:01.210Z,1001.21
2019-05-23T11:08:01.236Z,1001.29
2019-05-23T11:09:01.279Z,1001.32
2019-05-23T11:10:01.291Z,1001.29
2019-05-23T11:11:01.338Z,1001.26
2019-05-23T11:12:01.345Z,1001.28
2019-05-23T11:13:01.374Z,1001.26
2019-05-23T11:14:01.400Z,1001.26
2019-05-23T11:15:01.441Z,1001.27
2019-05-23T11:16:01.456Z,1001.30
2019-05-23T11:17:01.527Z,1001.29
2019-05-23T11:18:01.513Z,1001.32
2019-05-23T11:19:01.610Z,1001.32
2019-05-23T11:20:01.820Z,1001.26
2019-05-23T11:21:01.610Z,1001.24
2019-05-23T11:22:01.645Z,1001.22
2019-05-23T11:23:03.741Z,1001.22
2019-05-23T11:24:01.728Z,1001.25
2019-05-23T11:25:01.731Z,1001.29
2019-05-23T11:26:02.696Z,1001.26
2019-05-23T11:27:01.805Z,1001.28
2019-05-23T11:28:02.160Z,1001.29
2019-05-23T11:29:01.818Z,1001.27
2019-05-23T11:30:01.879Z,1001.25
2019-05-23T11:31:01.863Z,1001.26
2019-05-23T11:32:01.894Z,1001.24
2019-05-23T11:33:01.917Z,1001.26
2019-05-23T11:34:01.946Z,1001.27
2019-05-23T11:35:01.974Z,1001.27
2019-05-23T11:36:01.999Z,1001.33
2019-05-23T11:37:02.036Z,1001.32
2019-05-23T11:38:02.065Z,1001.28
2019-05-23T11:39:02.081Z,1001.28
2019-05-23T11:40:02.318Z,1001.21
2019-05-23T11:41:02.202Z,1001.25
2019-05-23T11:42:02.166Z,1001.22
2019-05-23T11:43:02.192Z,1001.18
2019-05-23T11:44:02.266Z,1001.19
2019-05-23T11:45:02.250Z,1001.15
2019-05-23T11:46:02.304Z,1001.18
2019-05-23T11:47:02.303Z,1001.14
2019-05-23T11:48:02.337Z,1001.10
2019-05-23T11:49:02.418Z,1001.14
2019-05-23T11:50:02.384Z,1001.14
2019-05-23T11:51:02.482Z,1001.13
2019-05-23T11:52:02.436Z,1001.14
2019-05-23T11:53:02.464Z,1001.11
2019-05-23T11:54:08.530Z,1001.10
2019-05-23T11:55:02.516Z,1001.13
2019-05-23T11:56:02.591Z,1001.14
2019-05-23T11:57:02.576Z,1001.12
2019-05-23T11:58:02.603Z,1001.16
2019-05-23T11:59:02.638Z,1001.11
2019-05-23T12:00:02.657Z,1001.12
2019-05-23T12:01:02.687Z,1001.09
2019-05-23T12:02:02.710Z,1001.06
2019-05-23T12:03:02.735Z,1001.08
2019-05-23T12:04:02.812Z,1001.06
2019-05-23T12:05:02.822Z,1001.07
2019-05-23T12:06:05.490Z,1001.08
2019-05-23T12:07:02.844Z,1001.05
2019-05-23T12:08:02.871Z,1001.08
2019-05-23T12:09:02.916Z,1001.13
2019-05-23T12:10:02.929Z,1001.13
2019-05-23T12:11:02.954Z,1001.10
2019-05-23T12:12:03.001Z,1001.19
2019-05-23T12:13:03.008Z,1001.14
2019-05-23T12:14:03.036Z,1001.11
2019-05-23T12:15:03.063Z,1001.14
2019-05-23T12:16:03.090Z,1001.13
2019-05-23T12:17:03.120Z,1001.13